Hlavní strana
METAR-TAF:

METAR-TAF

Letiště :

Ashland, Kentucky, Spojené státy americké

zeměpisná šířka: 38-33-16N, zeměpisná délka: 082-44-17W, výška: 166 m

Aktuální stav počasí

Zpráva byla vytvořena před 19 minutami, v 01:56 UTC
Západoseverozápadní vítr 4 kt
Teplota 7°C
Vlhkost vzduchu 93%
Tlak 1013 hPa
Viditelnost: 16.1 km
Oblačno až skoro zataženo ve výšce 1700 ft
Zataženo ve výšce 6500 ft

METAR: KDWU 220156Z AUTO 29004KT 10SM BKN017 OVC065 07/06 A2991 RMK AO2 RAE06 SLP132 P0000 T00720056

Čas: 22:15 (02:15 UTC)


TAF: chybějící

Stav a předpovědi počasí z více než 4 000 letišť (zprávy METAR a TAF).

Červené a žluté tečky na mapě představují dostupné meteorologické stanice.

Když kurzor umístíte na tečku, zobrazí se název stanice.

Pak kliknutím zobrazíte stav a předpověď počasí.

Chcete-li změnit mapu, kliknutím na zelené tlačítko se znaménkem +mapu přiblížíte, kliknutím na zelené tlačítko se znaménkem – mapu oddálíte a kliknutím na zelené šipky přejdete na sousední mapy.


METAR-TAF: